Time;durP1;ratioP1;P1;durP2;ratioP2;P2;SDS_P1;SDS_P2;PMS_P1;PMS_P2;Temp;Humidity;BMP_temperature;BMP_pressure;BME280_temperature;BME280_humidity;BME280_pressure;Samples;Min_cycle;Max_cycle;Signal;HPM_P1;HPM_P2
2023/07/04 00:02:03;;;;;;;14.85;6.45;;;;;;;;;;4990848;28;20133;-63
2023/07/04 00:04:31;;;;;;;10.40;5.93;;;;;;;;;;4992728;28;20040;-72
2023/07/04 00:07:00;;;;;;;12.20;7.03;;;;;;;;;;4980890;28;20174;-64
2023/07/04 00:09:27;;;;;;;12.27;6.43;;;;;;;;;;4998754;28;20038;-65
2023/07/04 00:11:53;;;;;;;12.23;6.47;;;;;;;;;;4988664;28;20049;-64
2023/07/04 00:14:20;;;;;;;13.38;6.80;;;;;;;;;;4989461;28;20099;-65
2023/07/04 00:16:46;;;;;;;10.32;6.07;;;;;;;;;;4994073;28;20394;-64
2023/07/04 00:19:13;;;;;;;11.95;6.82;;;;;;;;;;4996842;28;20110;-64
2023/07/04 00:21:41;;;;;;;11.95;6.72;;;;;;;;;;4993409;28;20536;-65
2023/07/04 00:24:07;;;;;;;12.63;7.15;;;;;;;;;;4995283;28;20050;-64
2023/07/04 00:26:35;;;;;;;10.43;5.40;;;;;;;;;;4994053;28;20141;-62
2023/07/04 00:29:01;;;;;;;12.57;6.85;;;;;;;;;;4996717;28;20042;-62
2023/07/04 00:31:29;;;;;;;13.65;7.20;;;;;;;;;;4997500;28;20038;-65
2023/07/04 00:33:55;;;;;;;11.90;6.80;;;;;;;;;;4993179;28;20501;-65
2023/07/04 00:36:23;;;;;;;11.90;6.18;;;;;;;;;;4971896;28;20070;-65
2023/07/04 00:38:56;;;;;;;12.07;6.93;;;;;;;;;;4972600;28;20175;-64
2023/07/04 00:41:24;;;;;;;12.38;7.18;;;;;;;;;;4971165;28;20173;-65
2023/07/04 00:44:09;;;;;;;13.32;6.80;;;;;;;;;;4972796;28;20030;-66
2023/07/04 00:47:10;;;;;;;9.35;5.45;;;;;;;;;;4962320;28;20042;-66
2023/07/04 00:49:42;;;;;;;11.88;6.30;;;;;;;;;;4933018;28;20583;-67
2023/07/04 00:52:23;;;;;;;12.88;7.57;;;;;;;;;;4961788;28;20231;-64
2023/07/04 00:54:52;;;;;;;16.08;8.23;;;;;;;;;;4964158;28;20141;-66
2023/07/04 00:57:22;;;;;;;14.40;7.45;;;;;;;;;;4965947;28;20058;-66
2023/07/04 00:59:52;;;;;;;15.35;8.65;;;;;;;;;;4949813;28;20038;-65
2023/07/04 01:02:21;;;;;;;16.88;7.70;;;;;;;;;;4963046;28;20032;-66
2023/07/04 01:04:50;;;;;;;14.85;8.20;;;;;;;;;;4961041;28;20047;-65
2023/07/04 01:07:16;;;;;;;13.35;7.88;;;;;;;;;;4965066;28;20053;-66
2023/07/04 01:09:46;;;;;;;15.27;8.38;;;;;;;;;;4945834;28;20042;-65
2023/07/04 01:12:13;;;;;;;14.43;8.45;;;;;;;;;;4951020;28;20129;-64
2023/07/04 01:14:41;;;;;;;15.02;7.65;;;;;;;;;;4982090;28;20099;-64
2023/07/04 01:17:08;;;;;;;11.93;6.18;;;;;;;;;;4986038;28;20116;-64
2023/07/04 01:19:38;;;;;;;17.27;8.20;;;;;;;;;;4980369;28;20225;-62
2023/07/04 01:22:24;;;;;;;11.32;6.70;;;;;;;;;;4989611;28;20041;-64
2023/07/04 01:25:01;;;;;;;14.07;6.90;;;;;;;;;;4988314;28;20180;-63
2023/07/04 01:27:29;;;;;;;15.05;8.07;;;;;;;;;;4990344;28;20104;-63
2023/07/04 01:30:00;;;;;;;13.93;8.05;;;;;;;;;;4990103;28;20050;-64
2023/07/04 01:32:28;;;;;;;17.02;9.38;;;;;;;;;;4987177;28;20116;-64
2023/07/04 01:35:00;;;;;;;16.05;9.00;;;;;;;;;;4987255;28;20042;-64
2023/07/04 01:37:30;;;;;;;18.15;10.05;;;;;;;;;;4988887;28;20041;-64
2023/07/04 01:39:58;;;;;;;18.48;9.27;;;;;;;;;;4988978;28;20457;-64
2023/07/04 01:42:31;;;;;;;15.98;9.57;;;;;;;;;;4988141;28;20050;-64
2023/07/04 01:45:01;;;;;;;17.35;9.50;;;;;;;;;;4988969;28;20809;-64
2023/07/04 01:47:31;;;;;;;15.45;8.35;;;;;;;;;;4988933;28;20056;-64
2023/07/04 01:49:58;;;;;;;19.05;10.05;;;;;;;;;;4989773;28;20066;-64
2023/07/04 01:52:26;;;;;;;18.00;10.55;;;;;;;;;;4987196;28;20038;-64
2023/07/04 01:54:52;;;;;;;16.70;8.25;;;;;;;;;;4988586;28;20045;-65
2023/07/04 01:57:19;;;;;;;19.90;11.38;;;;;;;;;;4987404;28;20038;-62
2023/07/04 01:59:45;;;;;;;18.27;10.80;;;;;;;;;;4985457;28;20038;-62
2023/07/04 02:02:12;;;;;;;14.40;8.68;;;;;;;;;;4986244;28;20636;-63
2023/07/04 02:04:39;;;;;;;17.85;10.40;;;;;;;;;;4986457;28;20193;-64
2023/07/04 02:07:05;;;;;;;16.60;9.85;;;;;;;;;;4969536;28;20101;-63
2023/07/04 02:09:32;;;;;;;16.85;9.23;;;;;;;;;;4987415;28;20164;-65
2023/07/04 02:11:59;;;;;;;16.88;9.70;;;;;;;;;;4989263;28;20040;-64
2023/07/04 02:14:25;;;;;;;16.48;8.98;;;;;;;;;;4986895;28;20050;-65
2023/07/04 02:16:55;;;;;;;14.18;8.30;;;;;;;;;;4986952;28;20121;-65
2023/07/04 02:19:21;;;;;;;14.25;8.52;;;;;;;;;;4987050;28;20060;-65
2023/07/04 02:21:48;;;;;;;16.13;8.82;;;;;;;;;;4987930;28;20050;-65
2023/07/04 02:24:15;;;;;;;15.00;7.97;;;;;;;;;;4987526;28;20107;-63
2023/07/04 02:26:41;;;;;;;18.60;9.85;;;;;;;;;;4987318;28;20507;-64
2023/07/04 02:29:08;;;;;;;14.48;8.75;;;;;;;;;;4986848;28;20051;-64
2023/07/04 02:31:34;;;;;;;14.90;9.07;;;;;;;;;;4985774;28;20034;-65
2023/07/04 02:34:01;;;;;;;17.35;9.20;;;;;;;;;;4986096;28;20034;-63
2023/07/04 02:36:28;;;;;;;17.25;8.23;;;;;;;;;;4986028;28;20657;-64
2023/07/04 02:38:54;;;;;;;14.43;8.15;;;;;;;;;;4988224;28;20038;-64
2023/07/04 02:41:21;;;;;;;14.73;8.82;;;;;;;;;;4987729;28;20030;-64
2023/07/04 02:43:47;;;;;;;13.98;7.70;;;;;;;;;;4986152;28;20429;-64
2023/07/04 02:46:14;;;;;;;15.32;8.90;;;;;;;;;;4988858;28;20173;-64
2023/07/04 02:48:41;;;;;;;15.55;7.78;;;;;;;;;;4990655;28;20129;-64
2023/07/04 02:51:08;;;;;;;14.02;7.80;;;;;;;;;;4989343;28;20128;-64
2023/07/04 02:53:34;;;;;;;12.40;7.32;;;;;;;;;;4988620;28;20046;-65
2023/07/04 02:56:01;;;;;;;13.77;8.15;;;;;;;;;;4988631;28;20038;-63
2023/07/04 02:58:28;;;;;;;16.88;9.77;;;;;;;;;;4986864;28;20102;-64
2023/07/04 03:00:54;;;;;;;16.83;8.77;;;;;;;;;;4988448;28;20085;-64
2023/07/04 03:03:22;;;;;;;16.85;10.05;;;;;;;;;;4989244;28;21144;-62
2023/07/04 03:05:48;;;;;;;21.92;11.07;;;;;;;;;;4988978;28;20041;-63
2023/07/04 03:08:15;;;;;;;21.52;11.25;;;;;;;;;;4989063;28;20053;-62
2023/07/04 03:10:44;;;;;;;24.42;13.45;;;;;;;;;;4987575;28;20395;-63
2023/07/04 03:13:11;;;;;;;20.15;10.60;;;;;;;;;;4983615;28;20113;-64
2023/07/04 03:15:37;;;;;;;19.92;11.45;;;;;;;;;;4985743;28;20052;-65
2023/07/04 03:18:04;;;;;;;20.80;11.13;;;;;;;;;;4989384;28;20133;-64
2023/07/04 03:20:31;;;;;;;21.40;11.23;;;;;;;;;;4990238;28;20479;-64
2023/07/04 03:22:57;;;;;;;20.98;12.10;;;;;;;;;;4987461;28;20047;-63
2023/07/04 03:25:24;;;;;;;23.40;12.40;;;;;;;;;;4988813;28;20041;-64
2023/07/04 03:27:51;;;;;;;26.38;14.50;;;;;;;;;;4966328;28;20050;-63
2023/07/04 03:30:17;;;;;;;27.52;15.50;;;;;;;;;;4983261;28;20050;-63
2023/07/04 03:32:44;;;;;;;22.27;13.00;;;;;;;;;;4980110;28;20049;-63
2023/07/04 03:35:11;;;;;;;24.05;13.15;;;;;;;;;;4981705;28;20103;-63
2023/07/04 03:37:38;;;;;;;29.50;16.17;;;;;;;;;;4982067;28;20052;-64
2023/07/04 03:40:07;;;;;;;26.30;15.40;;;;;;;;;;4982950;28;20125;-63
2023/07/04 03:42:35;;;;;;;28.90;16.52;;;;;;;;;;4980420;28;20793;-62
2023/07/04 03:45:02;;;;;;;23.38;13.15;;;;;;;;;;4980410;28;20042;-62
2023/07/04 03:47:28;;;;;;;23.60;13.50;;;;;;;;;;4985715;28;20163;-63
2023/07/04 03:49:55;;;;;;;27.33;14.80;;;;;;;;;;4986908;28;20056;-63
2023/07/04 03:52:22;;;;;;;29.05;15.85;;;;;;;;;;4985724;28;21645;-64
2023/07/04 03:54:49;;;;;;;22.52;12.27;;;;;;;;;;4982705;28;20044;-63
2023/07/04 03:57:15;;;;;;;26.13;14.38;;;;;;;;;;4984594;28;20029;-63
2023/07/04 03:59:42;;;;;;;27.70;14.43;;;;;;;;;;4982807;28;20038;-63
2023/07/04 04:02:09;;;;;;;23.38;12.88;;;;;;;;;;4982292;28;20038;-64
2023/07/04 04:04:39;;;;;;;23.45;12.73;;;;;;;;;;4983730;28;20069;-63
2023/07/04 04:07:07;;;;;;;28.90;15.50;;;;;;;;;;4983058;28;20056;-65
2023/07/04 04:09:34;;;;;;;32.10;16.98;;;;;;;;;;4984054;28;20034;-63
2023/07/04 04:12:01;;;;;;;29.08;15.68;;;;;;;;;;4984174;28;20125;-64
2023/07/04 04:14:29;;;;;;;31.25;16.67;;;;;;;;;;4981967;28;20068;-64
2023/07/04 04:16:56;;;;;;;31.05;17.73;;;;;;;;;;4984499;28;20139;-64
2023/07/04 04:19:23;;;;;;;30.30;17.75;;;;;;;;;;4986040;28;20124;-64
2023/07/04 04:21:50;;;;;;;35.58;19.23;;;;;;;;;;4984425;28;20045;-63
2023/07/04 04:24:17;;;;;;;29.60;16.60;;;;;;;;;;4983386;28;20081;-62
2023/07/04 04:26:46;;;;;;;30.83;16.98;;;;;;;;;;4984761;28;20061;-63
2023/07/04 04:29:15;;;;;;;33.55;17.65;;;;;;;;;;4983524;28;20468;-63
2023/07/04 04:31:42;;;;;;;33.17;18.08;;;;;;;;;;4985136;28;20066;-64
2023/07/04 04:34:09;;;;;;;31.10;16.90;;;;;;;;;;4985062;28;21938;-63
2023/07/04 04:36:35;;;;;;;32.08;17.00;;;;;;;;;;4985288;28;20111;-65
2023/07/04 04:39:03;;;;;;;33.88;17.63;;;;;;;;;;4983431;28;20049;-64
2023/07/04 04:41:30;;;;;;;34.72;18.63;;;;;;;;;;4981633;28;20073;-65
2023/07/04 04:43:59;;;;;;;35.97;18.73;;;;;;;;;;4968100;28;20053;-64
2023/07/04 04:46:26;;;;;;;34.15;18.92;;;;;;;;;;4955947;28;20046;-64
2023/07/04 04:48:53;;;;;;;29.95;16.33;;;;;;;;;;4984484;28;20069;-63
2023/07/04 04:51:22;;;;;;;32.15;15.50;;;;;;;;;;4970563;28;20077;-64
2023/07/04 04:53:48;;;;;;;30.98;18.13;;;;;;;;;;4944790;28;20038;-65
2023/07/04 04:56:16;;;;;;;39.03;21.33;;;;;;;;;;4986793;28;20034;-64
2023/07/04 04:58:43;;;;;;;40.25;21.20;;;;;;;;;;4985896;28;20076;-64
2023/07/04 05:01:16;;;;;;;39.97;22.20;;;;;;;;;;4984976;28;20049;-64
2023/07/04 05:03:43;;;;;;;40.15;22.00;;;;;;;;;;4983406;28;20038;-64
2023/07/04 05:06:10;;;;;;;39.75;20.35;;;;;;;;;;4983325;28;20034;-64
2023/07/04 05:08:37;;;;;;;41.90;22.25;;;;;;;;;;4981598;28;20037;-64
2023/07/04 05:11:06;;;;;;;41.92;22.75;;;;;;;;;;4985847;28;20510;-65
2023/07/04 05:13:33;;;;;;;37.90;21.15;;;;;;;;;;4978515;28;20078;-65
2023/07/04 05:16:21;;;;;;;42.60;22.40;;;;;;;;;;4979477;28;20033;-64
2023/07/04 05:18:48;;;;;;;37.92;21.45;;;;;;;;;;4978131;28;20046;-64
2023/07/04 05:21:17;;;;;;;36.35;20.02;;;;;;;;;;4963648;28;20442;-65
2023/07/04 05:23:45;;;;;;;35.78;20.58;;;;;;;;;;4976730;28;20214;-66
2023/07/04 05:26:13;;;;;;;32.03;16.67;;;;;;;;;;4979402;28;20537;-64
2023/07/04 05:28:40;;;;;;;33.78;18.08;;;;;;;;;;4977699;28;20539;-65
2023/07/04 05:31:28;;;;;;;36.00;18.35;;;;;;;;;;4965231;28;20057;-65
2023/07/04 05:33:55;;;;;;;38.25;19.38;;;;;;;;;;4965830;28;20054;-65
2023/07/04 05:36:23;;;;;;;33.55;18.80;;;;;;;;;;4964879;28;20043;-64
2023/07/04 05:38:50;;;;;;;30.95;16.83;;;;;;;;;;4948765;28;20089;-64
2023/07/04 05:41:19;;;;;;;31.40;17.55;;;;;;;;;;4965053;28;20443;-66
2023/07/04 05:43:46;;;;;;;27.45;15.57;;;;;;;;;;4959172;28;20173;-64
2023/07/04 05:46:13;;;;;;;30.30;16.55;;;;;;;;;;4959323;28;20046;-65
2023/07/04 05:48:40;;;;;;;24.23;14.60;;;;;;;;;;4962527;28;20065;-65
2023/07/04 05:51:08;;;;;;;25.35;14.23;;;;;;;;;;4968632;28;21663;-64
2023/07/04 05:53:35;;;;;;;25.42;14.45;;;;;;;;;;4969112;28;20045;-65
2023/07/04 05:56:24;;;;;;;22.02;12.80;;;;;;;;;;4921918;28;20040;-65
2023/07/04 05:58:58;;;;;;;25.98;13.82;;;;;;;;;;4911719;29;20047;-64
2023/07/04 06:01:37;;;;;;;24.48;13.50;;;;;;;;;;4923547;28;20040;-64
2023/07/04 06:04:04;;;;;;;18.77;9.70;;;;;;;;;;4925469;29;20128;-65
2023/07/04 06:06:34;;;;;;;24.25;13.27;;;;;;;;;;4924548;28;20070;-64
2023/07/04 06:09:02;;;;;;;27.27;13.02;;;;;;;;;;4936633;28;20151;-64
2023/07/04 06:11:34;;;;;;;21.13;12.05;;;;;;;;;;4942543;28;20044;-65
2023/07/04 06:14:04;;;;;;;23.83;12.73;;;;;;;;;;4945882;28;20095;-63
2023/07/04 06:16:31;;;;;;;25.00;13.27;;;;;;;;;;4945095;28;20035;-64
2023/07/04 06:18:57;;;;;;;23.33;12.50;;;;;;;;;;4943939;28;20066;-64
2023/07/04 06:21:25;;;;;;;21.73;11.55;;;;;;;;;;4945531;28;20054;-64
2023/07/04 06:23:54;;;;;;;22.52;12.10;;;;;;;;;;4947082;28;20063;-64
2023/07/04 06:26:21;;;;;;;21.10;12.15;;;;;;;;;;4934201;28;20039;-64
2023/07/04 06:28:49;;;;;;;20.95;11.50;;;;;;;;;;4945054;28;20063;-66
2023/07/04 06:31:16;;;;;;;21.40;12.20;;;;;;;;;;4945229;28;20047;-64
2023/07/04 06:33:43;;;;;;;21.23;11.05;;;;;;;;;;4956772;28;20042;-64
2023/07/04 06:36:12;;;;;;;20.23;11.10;;;;;;;;;;5000309;28;20034;-64
2023/07/04 06:38:40;;;;;;;24.65;11.60;;;;;;;;;;4995605;28;20031;-64
2023/07/04 06:41:10;;;;;;;20.15;11.63;;;;;;;;;;4995457;28;20049;-64
2023/07/04 06:43:37;;;;;;;18.75;9.35;;;;;;;;;;4993811;28;20058;-65
2023/07/04 06:46:03;;;;;;;22.30;11.75;;;;;;;;;;4983286;28;20052;-64
2023/07/04 06:48:30;;;;;;;23.15;12.18;;;;;;;;;;4995314;28;20520;-63
2023/07/04 06:50:58;;;;;;;21.52;12.45;;;;;;;;;;4990805;28;20038;-64
2023/07/04 06:53:26;;;;;;;23.10;12.55;;;;;;;;;;5006076;28;20038;-64
2023/07/04 06:55:52;;;;;;;23.33;11.82;;;;;;;;;;5004503;28;20046;-64
2023/07/04 06:58:19;;;;;;;22.75;12.15;;;;;;;;;;4989399;28;20121;-65
2023/07/04 07:00:46;;;;;;;25.20;12.55;;;;;;;;;;4987809;28;20046;-64
2023/07/04 07:03:12;;;;;;;21.50;11.80;;;;;;;;;;5003898;28;20096;-64
2023/07/04 07:05:39;;;;;;;20.73;11.70;;;;;;;;;;4989394;28;20430;-64
2023/07/04 07:08:06;;;;;;;25.08;13.40;;;;;;;;;;4988953;28;20125;-64
2023/07/04 07:10:36;;;;;;;22.23;11.10;;;;;;;;;;4986738;28;20048;-64
2023/07/04 07:13:04;;;;;;;20.67;11.20;;;;;;;;;;4987968;28;20045;-63
2023/07/04 07:15:31;;;;;;;21.25;12.20;;;;;;;;;;4986395;28;20038;-64
2023/07/04 07:17:57;;;;;;;23.98;12.23;;;;;;;;;;4989705;28;20035;-64
2023/07/04 07:20:24;;;;;;;20.50;11.40;;;;;;;;;;4992365;28;20054;-64
2023/07/04 07:22:51;;;;;;;21.52;10.93;;;;;;;;;;5007692;28;20046;-64
2023/07/04 07:25:17;;;;;;;21.77;11.73;;;;;;;;;;4995474;28;20038;-64
2023/07/04 07:27:44;;;;;;;20.48;11.38;;;;;;;;;;4994341;28;20506;-63
2023/07/04 07:30:11;;;;;;;23.40;11.73;;;;;;;;;;4993096;28;20093;-64
2023/07/04 07:32:37;;;;;;;21.75;11.82;;;;;;;;;;4984476;28;20042;-64
2023/07/04 07:35:05;;;;;;;23.58;12.48;;;;;;;;;;5008406;28;20107;-64
2023/07/04 07:37:31;;;;;;;21.50;11.60;;;;;;;;;;4996249;28;20061;-63
2023/07/04 07:39:58;;;;;;;21.77;12.05;;;;;;;;;;4996718;28;20070;-63
2023/07/04 07:42:24;;;;;;;22.55;11.60;;;;;;;;;;4996428;28;20042;-63
2023/07/04 07:44:51;;;;;;;23.27;11.77;;;;;;;;;;4996042;28;20112;-61
2023/07/04 07:47:19;;;;;;;23.77;11.95;;;;;;;;;;4993196;28;20092;-62
2023/07/04 07:49:46;;;;;;;21.13;11.40;;;;;;;;;;4994360;28;20049;-63
2023/07/04 07:52:12;;;;;;;22.63;11.18;;;;;;;;;;4995647;28;20042;-65
2023/07/04 07:54:39;;;;;;;21.13;10.80;;;;;;;;;;4994997;28;20462;-64
2023/07/04 07:57:06;;;;;;;20.45;11.20;;;;;;;;;;4996804;28;20141;-64
2023/07/04 07:59:33;;;;;;;21.88;11.40;;;;;;;;;;4991495;28;20042;-64
2023/07/04 08:02:01;;;;;;;22.45;11.95;;;;;;;;;;4994565;28;20097;-64
2023/07/04 08:04:27;;;;;;;18.42;10.75;;;;;;;;;;4993709;28;20046;-63
2023/07/04 08:06:54;;;;;;;23.55;12.20;;;;;;;;;;4993502;28;20506;-64
2023/07/04 08:09:21;;;;;;;22.05;11.50;;;;;;;;;;4994600;28;20544;-65
2023/07/04 08:11:48;;;;;;;23.27;11.68;;;;;;;;;;4984106;28;20045;-64
2023/07/04 08:14:15;;;;;;;21.95;12.43;;;;;;;;;;5006184;28;20104;-64
2023/07/04 08:16:43;;;;;;;21.48;11.75;;;;;;;;;;5013811;28;22322;-65
2023/07/04 08:19:10;;;;;;;23.08;11.45;;;;;;;;;;5007851;28;20093;-64
2023/07/04 08:21:36;;;;;;;21.33;10.77;;;;;;;;;;4981136;28;20058;-67
2023/07/04 08:24:10;;;;;;;23.75;12.00;;;;;;;;;;4969499;28;20057;-64
2023/07/04 08:26:36;;;;;;;;;;;;;;;;;;4952782;28;20038;-63
2023/07/04 08:29:03;;;;;;;23.17;10.07;;;;;;;;;;4954756;28;19925;-64
2023/07/04 08:31:29;;;;;;;22.33;11.57;;;;;;;;;;4952017;28;20066;-63
2023/07/04 08:33:56;;;;;;;21.58;10.93;;;;;;;;;;4954280;28;20031;-63
2023/07/04 08:36:25;;;;;;;23.02;11.35;;;;;;;;;;4951981;28;20065;-62
2023/07/04 08:38:51;;;;;;;20.05;10.52;;;;;;;;;;4953793;28;20038;-62
2023/07/04 08:41:27;;;;;;;21.20;11.05;;;;;;;;;;4956064;28;20071;-64
2023/07/04 08:44:23;;;;;;;20.67;11.40;;;;;;;;;;4952055;28;20043;-63
2023/07/04 08:46:51;;;;;;;22.00;11.18;;;;;;;;;;4943875;28;20042;-64
2023/07/04 08:49:41;;;;;;;20.88;10.60;;;;;;;;;;4954001;28;20042;-64
2023/07/04 08:52:11;;;;;;;20.70;11.38;;;;;;;;;;4951913;28;20696;-64
2023/07/04 08:54:38;;;;;;;18.30;9.88;;;;;;;;;;4956687;28;21028;-64
2023/07/04 08:57:13;;;;;;;19.85;10.90;;;;;;;;;;4954095;28;20061;-65
2023/07/04 08:59:41;;;;;;;19.98;10.15;;;;;;;;;;4982925;28;20407;-64
2023/07/04 09:02:24;;;;;;;20.42;10.95;;;;;;;;;;4991657;28;20042;-65
2023/07/04 09:04:56;;;;;;;19.60;11.02;;;;;;;;;;4991428;28;20057;-64
2023/07/04 09:07:22;;;;;;;20.92;10.52;;;;;;;;;;4991836;28;20065;-66
2023/07/04 09:10:18;;;;;;;19.70;10.45;;;;;;;;;;4993030;28;20042;-62
2023/07/04 09:12:45;;;;;;;18.25;10.48;;;;;;;;;;4978895;28;20037;-64
2023/07/04 09:15:15;;;;;;;20.48;10.93;;;;;;;;;;4993855;28;20794;-63
2023/07/04 09:17:47;;;;;;;20.33;10.10;;;;;;;;;;4992383;28;20046;-63
2023/07/04 09:20:14;;;;;;;22.02;10.82;;;;;;;;;;4990726;28;20053;-64
2023/07/04 09:22:40;;;;;;;21.35;10.65;;;;;;;;;;4992176;28;20049;-63
2023/07/04 09:25:08;;;;;;;17.58;10.15;;;;;;;;;;4993586;28;20056;-63
2023/07/04 09:27:35;;;;;;;20.00;10.52;;;;;;;;;;4993035;28;20039;-64
2023/07/04 09:30:03;;;;;;;19.83;10.23;;;;;;;;;;4997556;28;20062;-64
2023/07/04 09:32:30;;;;;;;19.63;9.95;;;;;;;;;;4997512;28;20133;-64
2023/07/04 09:35:00;;;;;;;18.92;9.95;;;;;;;;;;4996491;28;20049;-63
2023/07/04 09:37:27;;;;;;;23.70;10.50;;;;;;;;;;4992811;28;20042;-63
2023/07/04 09:39:55;;;;;;;18.95;10.50;;;;;;;;;;4993342;28;20045;-64
2023/07/04 09:42:23;;;;;;;20.75;10.38;;;;;;;;;;4994910;28;20042;-63
2023/07/04 09:44:52;;;;;;;18.17;10.07;;;;;;;;;;4998595;28;20038;-63
2023/07/04 09:47:25;;;;;;;22.52;11.07;;;;;;;;;;4998099;28;20137;-64
2023/07/04 09:50:12;;;;;;;19.65;9.65;;;;;;;;;;4998332;28;20045;-63
2023/07/04 09:52:39;;;;;;;21.00;9.88;;;;;;;;;;4997527;28;20076;-65
2023/07/04 09:55:08;;;;;;;20.35;10.07;;;;;;;;;;4996676;28;20061;-63
2023/07/04 09:57:34;;;;;;;17.70;9.95;;;;;;;;;;4998131;28;20046;-64
2023/07/04 10:00:16;;;;;;;19.92;10.68;;;;;;;;;;4997668;28;20046;-63
2023/07/04 10:02:43;;;;;;;18.67;10.18;;;;;;;;;;4993190;28;20049;-62
2023/07/04 10:05:11;;;;;;;19.92;10.25;;;;;;;;;;4994827;28;20037;-62
2023/07/04 10:07:38;;;;;;;17.95;9.90;;;;;;;;;;4994976;28;20065;-63
2023/07/04 10:10:08;;;;;;;18.77;9.95;;;;;;;;;;4996602;28;20038;-64
2023/07/04 10:12:43;;;;;;;20.02;10.75;;;;;;;;;;4999203;28;20922;-61
2023/07/04 10:15:10;;;;;;;17.45;9.10;;;;;;;;;;4991658;28;20134;-61
2023/07/04 10:17:39;;;;;;;19.10;10.38;;;;;;;;;;4992607;28;20079;-62
2023/07/04 10:20:13;;;;;;;17.88;9.35;;;;;;;;;;4990725;28;20787;-63
2023/07/04 10:22:45;;;;;;;19.27;10.40;;;;;;;;;;4990340;28;20576;-61
2023/07/04 10:25:16;;;;;;;17.10;9.13;;;;;;;;;;4991173;28;20125;-62
2023/07/04 10:27:45;;;;;;;21.25;9.95;;;;;;;;;;4996649;28;20046;-61
2023/07/04 10:30:15;;;;;;;16.60;9.05;;;;;;;;;;4997038;28;20041;-62
2023/07/04 10:32:44;;;;;;;20.05;10.25;;;;;;;;;;4996067;28;20569;-63
2023/07/04 10:35:12;;;;;;;19.52;9.75;;;;;;;;;;4995298;28;20041;-63
2023/07/04 10:37:40;;;;;;;18.60;9.55;;;;;;;;;;4998422;28;20038;-63
2023/07/04 10:40:10;;;;;;;17.50;9.02;;;;;;;;;;4996469;28;20034;-62
2023/07/04 10:42:55;;;;;;;19.35;9.30;;;;;;;;;;4993927;28;20042;-62
2023/07/04 10:45:23;;;;;;;17.38;9.05;;;;;;;;;;4995117;28;20038;-63
2023/07/04 10:47:51;;;;;;;15.10;8.35;;;;;;;;;;4994589;28;20049;-62
2023/07/04 10:50:23;;;;;;;17.08;8.65;;;;;;;;;;4993977;28;20113;-64
2023/07/04 10:52:50;;;;;;;16.63;8.32;;;;;;;;;;4992823;28;20120;-63
2023/07/04 10:55:23;;;;;;;14.95;7.88;;;;;;;;;;4993011;28;20046;-64
2023/07/04 10:57:56;;;;;;;15.45;7.88;;;;;;;;;;4992338;28;20682;-64
2023/07/04 11:00:27;;;;;;;15.70;8.35;;;;;;;;;;4994035;28;20542;-64
2023/07/04 11:02:55;;;;;;;15.13;8.43;;;;;;;;;;4991835;28;20045;-64
2023/07/04 11:05:29;;;;;;;15.82;8.20;;;;;;;;;;4995249;28;20030;-61
2023/07/04 11:07:56;;;;;;;16.83;8.88;;;;;;;;;;4993413;28;20134;-62
2023/07/04 11:10:24;;;;;;;17.27;8.20;;;;;;;;;;4994182;28;20034;-63
2023/07/04 11:13:01;;;;;;;15.75;8.23;;;;;;;;;;4992892;28;20046;-63
2023/07/04 11:15:34;;;;;;;14.45;8.07;;;;;;;;;;4991262;28;20042;-62
2023/07/04 11:18:01;;;;;;;13.77;7.43;;;;;;;;;;4992128;28;20050;-62
2023/07/04 11:20:30;;;;;;;14.02;7.75;;;;;;;;;;4992746;28;20041;-61
2023/07/04 11:22:58;;;;;;;15.45;8.10;;;;;;;;;;4989313;28;20049;-62
2023/07/04 11:25:31;;;;;;;19.67;8.48;;;;;;;;;;4992613;28;20782;-62
2023/07/04 11:28:16;;;;;;;17.30;8.75;;;;;;;;;;4995174;28;20058;-62
2023/07/04 11:30:44;;;;;;;17.27;9.00;;;;;;;;;;4992168;28;20030;-62
2023/07/04 11:33:31;;;;;;;13.95;7.93;;;;;;;;;;4995245;28;20066;-64
2023/07/04 11:36:02;;;;;;;14.85;7.82;;;;;;;;;;4990682;28;20041;-63
2023/07/04 11:38:30;;;;;;;17.42;8.18;;;;;;;;;;4991822;28;20183;-62
2023/07/04 11:40:58;;;;;;;15.73;8.10;;;;;;;;;;4991841;28;20045;-63
2023/07/04 11:43:34;;;;;;;15.07;8.00;;;;;;;;;;4991646;28;20038;-63
2023/07/04 11:46:01;;;;;;;15.25;7.75;;;;;;;;;;4996413;28;20174;-63
2023/07/04 11:48:29;;;;;;;16.23;8.23;;;;;;;;;;4995811;28;20060;-61
2023/07/04 11:51:06;;;;;;;17.58;7.57;;;;;;;;;;4992864;28;20112;-61
2023/07/04 11:53:45;;;;;;;15.48;8.00;;;;;;;;;;4992461;28;20047;-64
2023/07/04 11:56:17;;;;;;;15.60;8.23;;;;;;;;;;4992230;28;20049;-64
2023/07/04 11:58:45;;;;;;;16.15;7.13;;;;;;;;;;4979300;28;20939;-63
2023/07/04 12:01:12;;;;;;;14.02;6.75;;;;;;;;;;4994761;28;20042;-65
2023/07/04 12:03:55;;;;;;;13.77;7.85;;;;;;;;;;4992779;28;20083;-64
2023/07/04 12:07:04;;;;;;;13.95;6.88;;;;;;;;;;4973039;28;20575;-65
2023/07/04 12:09:37;;;;;;;13.75;7.72;;;;;;;;;;4965020;28;20510;-66
2023/07/04 12:12:06;;;;;;;16.85;7.75;;;;;;;;;;4974023;28;20400;-65
2023/07/04 12:14:35;;;;;;;13.90;7.15;;;;;;;;;;4954557;28;20091;-65
2023/07/04 12:17:02;;;;;;;16.13;6.88;;;;;;;;;;4956474;28;20078;-66
2023/07/04 12:19:29;;;;;;;14.23;7.75;;;;;;;;;;4961219;28;20154;-64
2023/07/04 12:21:58;;;;;;;15.18;7.30;;;;;;;;;;4952210;28;20602;-64
2023/07/04 12:24:25;;;;;;;13.70;7.30;;;;;;;;;;4950991;28;20049;-66
2023/07/04 12:26:53;;;;;;;15.75;7.28;;;;;;;;;;4971549;28;20038;-66
2023/07/04 12:29:23;;;;;;;14.52;7.82;;;;;;;;;;4970052;28;20105;-69
2023/07/04 12:32:13;;;;;;;13.20;7.05;;;;;;;;;;4971389;28;20035;-68
2023/07/04 12:34:42;;;;;;;16.50;7.95;;;;;;;;;;4943308;28;20041;-68
2023/07/04 12:37:14;;;;;;;15.48;7.57;;;;;;;;;;4975601;28;20046;-67
2023/07/04 12:40:07;;;;;;;18.20;8.27;;;;;;;;;;4994138;28;20041;-67
2023/07/04 12:42:34;;;;;;;13.27;7.22;;;;;;;;;;4989026;28;20042;-67
2023/07/04 12:45:09;;;;;;;16.23;8.38;;;;;;;;;;4994580;28;20045;-68
2023/07/04 12:47:38;;;;;;;14.05;7.22;;;;;;;;;;4990049;28;20123;-67
2023/07/04 12:50:08;;;;;;;12.90;7.13;;;;;;;;;;4987053;28;20049;-66
2023/07/04 12:52:37;;;;;;;14.55;6.93;;;;;;;;;;4935974;28;20049;-68
2023/07/04 12:55:05;;;;;;;14.50;7.45;;;;;;;;;;4940468;28;20070;-66
2023/07/04 12:57:47;;;;;;;14.80;7.47;;;;;;;;;;4948928;28;20046;-70
2023/07/04 13:00:23;;;;;;;15.23;6.88;;;;;;;;;;4953443;28;20394;-67
2023/07/04 13:02:50;;;;;;;15.15;7.13;;;;;;;;;;4955045;28;20055;-67
2023/07/04 13:05:17;;;;;;;14.68;7.75;;;;;;;;;;4955952;28;20042;-67
2023/07/04 13:07:46;;;;;;;17.33;7.57;;;;;;;;;;4951733;28;20039;-67
2023/07/04 13:10:20;;;;;;;13.50;6.90;;;;;;;;;;4954497;28;20058;-67
2023/07/04 13:12:47;;;;;;;17.02;8.07;;;;;;;;;;4957351;28;20460;-68
2023/07/04 13:15:19;;;;;;;14.75;6.63;;;;;;;;;;4951376;28;20531;-67
2023/07/04 13:17:56;;;;;;;15.43;7.07;;;;;;;;;;4956264;28;20050;-66
2023/07/04 13:20:23;;;;;;;13.52;6.88;;;;;;;;;;4954989;28;20039;-66
2023/07/04 13:22:50;;;;;;;13.38;6.57;;;;;;;;;;4964604;28;20042;-68
2023/07/04 13:25:20;;;;;;;20.35;7.30;;;;;;;;;;4999741;28;20045;-67
2023/07/04 13:27:47;;;;;;;15.20;7.10;;;;;;;;;;5001655;28;20037;-68
2023/07/04 13:30:25;;;;;;;12.60;6.60;;;;;;;;;;5000452;28;20077;-67
2023/07/04 13:32:51;;;;;;;12.43;6.68;;;;;;;;;;5005402;28;20049;-67
2023/07/04 13:35:21;;;;;;;12.27;6.55;;;;;;;;;;5005400;28;20042;-65
2023/07/04 13:37:47;;;;;;;13.18;6.70;;;;;;;;;;5004458;28;20038;-65
2023/07/04 13:40:14;;;;;;;13.88;6.53;;;;;;;;;;5003922;28;20064;-65
2023/07/04 13:42:41;;;;;;;11.63;6.38;;;;;;;;;;5000574;28;20041;-65
2023/07/04 13:45:09;;;;;;;12.55;6.75;;;;;;;;;;4998357;28;20117;-62
2023/07/04 13:47:35;;;;;;;12.30;6.00;;;;;;;;;;5003955;28;20069;-66
2023/07/04 13:50:05;;;;;;;12.32;6.43;;;;;;;;;;5006346;28;20041;-65
2023/07/04 13:52:32;;;;;;;13.73;6.65;;;;;;;;;;4990821;28;20049;-66
2023/07/04 13:54:58;;;;;;;15.85;7.03;;;;;;;;;;4994772;28;20050;-66
2023/07/04 13:57:25;;;;;;;12.50;6.50;;;;;;;;;;4993039;28;20548;-64
2023/07/04 13:59:51;;;;;;;14.70;7.00;;;;;;;;;;4994729;28;20050;-66
2023/07/04 14:02:18;;;;;;;12.65;6.47;;;;;;;;;;4991901;28;20116;-65
2023/07/04 14:04:44;;;;;;;14.00;6.85;;;;;;;;;;4993663;28;20053;-65
2023/07/04 14:07:11;;;;;;;11.88;6.53;;;;;;;;;;4995592;28;20421;-64
2023/07/04 14:09:38;;;;;;;14.07;6.82;;;;;;;;;;4995460;28;20224;-64
2023/07/04 14:12:04;;;;;;;13.18;6.32;;;;;;;;;;4996497;28;20064;-64
2023/07/04 14:14:31;;;;;;;12.35;6.75;;;;;;;;;;4995071;28;20181;-64
2023/07/04 14:16:58;;;;;;;13.85;6.90;;;;;;;;;;4995374;28;20128;-64
2023/07/04 14:19:24;;;;;;;12.23;6.68;;;;;;;;;;4993631;28;20553;-65
2023/07/04 14:21:51;;;;;;;12.00;6.70;;;;;;;;;;4994783;28;20041;-65
2023/07/04 14:24:17;;;;;;;12.63;6.95;;;;;;;;;;4994903;28;20038;-65
2023/07/04 14:26:45;;;;;;;12.38;6.45;;;;;;;;;;4993563;28;20040;-66
2023/07/04 14:29:11;;;;;;;11.98;6.30;;;;;;;;;;4992678;28;20096;-65
2023/07/04 14:31:38;;;;;;;14.00;7.00;;;;;;;;;;4994160;28;20131;-64
2023/07/04 14:34:05;;;;;;;12.15;6.57;;;;;;;;;;4994939;28;20037;-65
2023/07/04 14:36:31;;;;;;;12.45;6.13;;;;;;;;;;4992266;28;21774;-66